sensor_id;sensor_type;location;lat;lon;timestamp;P1;durP1;ratioP1;P2;durP2;ratioP2
28311;SDS011;15572;48.810;9.148;2024-02-26T00:01:39;5.57;;;2.17;;
28311;SDS011;15572;48.810;9.148;2024-02-26T00:06:37;2.93;;;1.90;;
28311;SDS011;15572;48.810;9.148;2024-02-26T00:11:36;2.67;;;1.80;;
28311;SDS011;15572;48.810;9.148;2024-02-26T00:16:32;3.07;;;2.03;;
28311;SDS011;15572;48.810;9.148;2024-02-26T00:21:29;2.27;;;1.80;;
28311;SDS011;15572;48.810;9.148;2024-02-26T00:26:26;4.47;;;1.67;;
28311;SDS011;15572;48.810;9.148;2024-02-26T00:31:23;2.60;;;2.00;;
28311;SDS011;15572;48.810;9.148;2024-02-26T00:36:19;4.87;;;2.80;;
28311;SDS011;15572;48.810;9.148;2024-02-26T00:41:16;3.77;;;2.00;;
28311;SDS011;15572;48.810;9.148;2024-02-26T00:46:13;4.10;;;1.97;;
28311;SDS011;15572;48.810;9.148;2024-02-26T00:51:10;3.87;;;1.80;;
28311;SDS011;15572;48.810;9.148;2024-02-26T00:56:06;3.67;;;2.20;;
28311;SDS011;15572;48.810;9.148;2024-02-26T01:01:03;2.47;;;1.60;;
28311;SDS011;15572;48.810;9.148;2024-02-26T01:06:00;2.57;;;1.80;;
28311;SDS011;15572;48.810;9.148;2024-02-26T01:10:57;3.50;;;1.80;;
28311;SDS011;15572;48.810;9.148;2024-02-26T01:15:53;3.17;;;1.63;;
28311;SDS011;15572;48.810;9.148;2024-02-26T01:20:50;2.77;;;2.07;;
28311;SDS011;15572;48.810;9.148;2024-02-26T01:25:47;6.17;;;2.00;;
28311;SDS011;15572;48.810;9.148;2024-02-26T01:30:44;3.73;;;2.10;;
28311;SDS011;15572;48.810;9.148;2024-02-26T01:35:41;2.77;;;2.00;;
28311;SDS011;15572;48.810;9.148;2024-02-26T01:40:37;2.90;;;2.13;;
28311;SDS011;15572;48.810;9.148;2024-02-26T01:45:35;2.67;;;2.00;;
28311;SDS011;15572;48.810;9.148;2024-02-26T01:50:31;2.73;;;1.80;;
28311;SDS011;15572;48.810;9.148;2024-02-26T01:55:29;2.30;;;1.80;;
28311;SDS011;15572;48.810;9.148;2024-02-26T02:00:26;2.17;;;1.87;;
28311;SDS011;15572;48.810;9.148;2024-02-26T02:05:24;2.10;;;1.50;;
28311;SDS011;15572;48.810;9.148;2024-02-26T02:10:22;3.20;;;1.80;;
28311;SDS011;15572;48.810;9.148;2024-02-26T02:15:20;2.20;;;1.53;;
28311;SDS011;15572;48.810;9.148;2024-02-26T02:20:17;1.87;;;1.60;;
28311;SDS011;15572;48.810;9.148;2024-02-26T02:25:15;1.87;;;1.60;;
28311;SDS011;15572;48.810;9.148;2024-02-26T02:30:11;2.13;;;1.70;;
28311;SDS011;15572;48.810;9.148;2024-02-26T02:35:08;2.63;;;2.00;;
28311;SDS011;15572;48.810;9.148;2024-02-26T02:40:05;2.07;;;1.60;;
28311;SDS011;15572;48.810;9.148;2024-02-26T02:45:04;4.47;;;1.80;;
28311;SDS011;15572;48.810;9.148;2024-02-26T02:50:01;1.90;;;1.80;;
28311;SDS011;15572;48.810;9.148;2024-02-26T02:54:58;2.77;;;1.60;;
28311;SDS011;15572;48.810;9.148;2024-02-26T02:59:54;2.10;;;1.80;;
28311;SDS011;15572;48.810;9.148;2024-02-26T03:04:52;1.60;;;1.50;;
28311;SDS011;15572;48.810;9.148;2024-02-26T03:09:48;2.63;;;2.00;;
28311;SDS011;15572;48.810;9.148;2024-02-26T03:14:45;3.90;;;2.00;;
28311;SDS011;15572;48.810;9.148;2024-02-26T03:19:41;3.60;;;1.67;;
28311;SDS011;15572;48.810;9.148;2024-02-26T03:24:42;2.43;;;1.73;;
28311;SDS011;15572;48.810;9.148;2024-02-26T03:29:39;3.37;;;2.30;;
28311;SDS011;15572;48.810;9.148;2024-02-26T03:34:35;3.10;;;2.30;;
28311;SDS011;15572;48.810;9.148;2024-02-26T03:39:34;3.63;;;2.13;;
28311;SDS011;15572;48.810;9.148;2024-02-26T03:44:31;3.63;;;2.30;;
28311;SDS011;15572;48.810;9.148;2024-02-26T03:49:28;6.57;;;2.30;;
28311;SDS011;15572;48.810;9.148;2024-02-26T03:54:24;3.73;;;2.50;;
28311;SDS011;15572;48.810;9.148;2024-02-26T03:59:21;5.07;;;2.53;;
28311;SDS011;15572;48.810;9.148;2024-02-26T04:04:20;3.07;;;2.27;;
28311;SDS011;15572;48.810;9.148;2024-02-26T04:09:17;3.40;;;2.17;;
28311;SDS011;15572;48.810;9.148;2024-02-26T04:14:13;3.60;;;2.07;;
28311;SDS011;15572;48.810;9.148;2024-02-26T04:19:09;3.20;;;2.20;;
28311;SDS011;15572;48.810;9.148;2024-02-26T04:24:07;2.90;;;2.17;;
28311;SDS011;15572;48.810;9.148;2024-02-26T04:29:03;3.77;;;2.10;;
28311;SDS011;15572;48.810;9.148;2024-02-26T04:34:00;1.93;;;1.80;;
28311;SDS011;15572;48.810;9.148;2024-02-26T04:38:56;2.77;;;1.90;;
28311;SDS011;15572;48.810;9.148;2024-02-26T04:43:54;3.20;;;2.00;;
28311;SDS011;15572;48.810;9.148;2024-02-26T04:48:51;2.77;;;2.13;;
28311;SDS011;15572;48.810;9.148;2024-02-26T04:53:47;2.37;;;2.00;;
28311;SDS011;15572;48.810;9.148;2024-02-26T04:58:44;2.63;;;2.20;;
28311;SDS011;15572;48.810;9.148;2024-02-26T05:03:41;2.67;;;2.10;;
28311;SDS011;15572;48.810;9.148;2024-02-26T05:08:38;3.10;;;1.93;;
28311;SDS011;15572;48.810;9.148;2024-02-26T05:13:34;2.60;;;2.00;;
28311;SDS011;15572;48.810;9.148;2024-02-26T05:18:31;3.00;;;1.90;;
28311;SDS011;15572;48.810;9.148;2024-02-26T05:23:29;2.70;;;2.00;;
28311;SDS011;15572;48.810;9.148;2024-02-26T05:28:25;2.17;;;1.90;;
28311;SDS011;15572;48.810;9.148;2024-02-26T05:33:21;4.07;;;2.20;;
28311;SDS011;15572;48.810;9.148;2024-02-26T05:38:18;4.70;;;2.20;;
28311;SDS011;15572;48.810;9.148;2024-02-26T05:43:16;4.30;;;2.10;;
28311;SDS011;15572;48.810;9.148;2024-02-26T05:48:12;2.80;;;1.90;;
28311;SDS011;15572;48.810;9.148;2024-02-26T05:53:08;3.43;;;2.10;;
28311;SDS011;15572;48.810;9.148;2024-02-26T05:58:05;2.97;;;2.07;;
28311;SDS011;15572;48.810;9.148;2024-02-26T06:03:03;2.93;;;2.03;;
28311;SDS011;15572;48.810;9.148;2024-02-26T06:07:59;2.37;;;2.00;;
28311;SDS011;15572;48.810;9.148;2024-02-26T06:12:57;3.13;;;2.20;;
28311;SDS011;15572;48.810;9.148;2024-02-26T06:17:53;3.90;;;2.03;;
28311;SDS011;15572;48.810;9.148;2024-02-26T06:22:51;3.23;;;2.43;;
28311;SDS011;15572;48.810;9.148;2024-02-26T06:27:48;4.50;;;2.50;;
28311;SDS011;15572;48.810;9.148;2024-02-26T06:32:45;3.40;;;2.40;;
28311;SDS011;15572;48.810;9.148;2024-02-26T06:37:41;3.73;;;2.43;;
28311;SDS011;15572;48.810;9.148;2024-02-26T06:42:39;3.60;;;2.87;;
28311;SDS011;15572;48.810;9.148;2024-02-26T06:47:35;4.20;;;2.77;;
28311;SDS011;15572;48.810;9.148;2024-02-26T06:52:32;4.47;;;2.70;;
28311;SDS011;15572;48.810;9.148;2024-02-26T06:57:28;3.47;;;2.27;;
28311;SDS011;15572;48.810;9.148;2024-02-26T07:02:26;3.73;;;2.60;;
28311;SDS011;15572;48.810;9.148;2024-02-26T07:07:22;3.50;;;2.53;;
28311;SDS011;15572;48.810;9.148;2024-02-26T07:12:18;3.07;;;2.20;;
28311;SDS011;15572;48.810;9.148;2024-02-26T07:17:16;3.80;;;2.80;;
28311;SDS011;15572;48.810;9.148;2024-02-26T07:22:14;3.43;;;2.60;;
28311;SDS011;15572;48.810;9.148;2024-02-26T07:27:10;4.23;;;2.60;;
28311;SDS011;15572;48.810;9.148;2024-02-26T07:32:07;4.67;;;2.50;;
28311;SDS011;15572;48.810;9.148;2024-02-26T07:37:03;5.57;;;2.97;;
28311;SDS011;15572;48.810;9.148;2024-02-26T07:42:03;4.47;;;2.80;;
28311;SDS011;15572;48.810;9.148;2024-02-26T07:47:00;4.40;;;3.00;;
28311;SDS011;15572;48.810;9.148;2024-02-26T07:51:56;4.53;;;3.53;;
28311;SDS011;15572;48.810;9.148;2024-02-26T07:56:53;5.17;;;3.53;;
28311;SDS011;15572;48.810;9.148;2024-02-26T08:01:51;6.33;;;3.90;;
28311;SDS011;15572;48.810;9.148;2024-02-26T08:06:47;6.80;;;4.00;;
28311;SDS011;15572;48.810;9.148;2024-02-26T08:11:44;9.43;;;4.00;;
28311;SDS011;15572;48.810;9.148;2024-02-26T08:16:40;6.77;;;3.83;;
28311;SDS011;15572;48.810;9.148;2024-02-26T08:21:38;10.13;;;4.40;;
28311;SDS011;15572;48.810;9.148;2024-02-26T08:26:34;10.60;;;4.73;;
28311;SDS011;15572;48.810;9.148;2024-02-26T08:31:31;9.07;;;5.07;;
28311;SDS011;15572;48.810;9.148;2024-02-26T08:36:27;10.43;;;4.90;;
28311;SDS011;15572;48.810;9.148;2024-02-26T08:41:25;7.70;;;4.90;;
28311;SDS011;15572;48.810;9.148;2024-02-26T08:46:21;11.60;;;5.20;;
28311;SDS011;15572;48.810;9.148;2024-02-26T08:51:17;9.20;;;4.30;;
28311;SDS011;15572;48.810;9.148;2024-02-26T08:56:14;8.50;;;4.47;;
28311;SDS011;15572;48.810;9.148;2024-02-26T09:01:13;6.23;;;3.97;;
28311;SDS011;15572;48.810;9.148;2024-02-26T09:06:10;6.00;;;3.90;;
28311;SDS011;15572;48.810;9.148;2024-02-26T09:11:07;6.47;;;3.90;;
28311;SDS011;15572;48.810;9.148;2024-02-26T09:16:05;8.80;;;4.33;;
28311;SDS011;15572;48.810;9.148;2024-02-26T09:21:05;6.40;;;4.30;;
28311;SDS011;15572;48.810;9.148;2024-02-26T09:26:02;6.27;;;3.80;;
28311;SDS011;15572;48.810;9.148;2024-02-26T09:30:58;7.37;;;3.87;;
28311;SDS011;15572;48.810;9.148;2024-02-26T09:35:55;5.50;;;3.77;;
28311;SDS011;15572;48.810;9.148;2024-02-26T09:40:53;9.40;;;3.90;;
28311;SDS011;15572;48.810;9.148;2024-02-26T09:45:49;5.77;;;4.07;;
28311;SDS011;15572;48.810;9.148;2024-02-26T09:50:46;5.53;;;3.90;;
28311;SDS011;15572;48.810;9.148;2024-02-26T09:55:43;8.87;;;4.63;;
28311;SDS011;15572;48.810;9.148;2024-02-26T10:00:41;11.10;;;4.47;;
28311;SDS011;15572;48.810;9.148;2024-02-26T10:05:38;5.63;;;4.00;;
28311;SDS011;15572;48.810;9.148;2024-02-26T10:10:35;7.67;;;3.83;;
28311;SDS011;15572;48.810;9.148;2024-02-26T10:15:33;9.83;;;3.83;;
28311;SDS011;15572;48.810;9.148;2024-02-26T10:20:31;7.40;;;3.60;;
28311;SDS011;15572;48.810;9.148;2024-02-26T10:25:27;6.20;;;3.27;;
28311;SDS011;15572;48.810;9.148;2024-02-26T10:30:26;7.50;;;3.23;;
28311;SDS011;15572;48.810;9.148;2024-02-26T10:35:23;4.47;;;2.80;;
28311;SDS011;15572;48.810;9.148;2024-02-26T10:40:22;4.40;;;2.50;;
28311;SDS011;15572;48.810;9.148;2024-02-26T10:45:18;4.27;;;2.53;;
28311;SDS011;15572;48.810;9.148;2024-02-26T10:50:15;3.00;;;2.20;;
28311;SDS011;15572;48.810;9.148;2024-02-26T10:55:16;3.40;;;2.00;;
28311;SDS011;15572;48.810;9.148;2024-02-26T11:00:15;3.50;;;2.60;;
28311;SDS011;15572;48.810;9.148;2024-02-26T11:05:12;4.97;;;2.37;;
28311;SDS011;15572;48.810;9.148;2024-02-26T11:10:11;4.23;;;2.43;;
28311;SDS011;15572;48.810;9.148;2024-02-26T11:15:08;3.67;;;2.30;;
28311;SDS011;15572;48.810;9.148;2024-02-26T11:20:07;4.93;;;2.00;;
28311;SDS011;15572;48.810;9.148;2024-02-26T11:25:07;4.33;;;2.23;;
28311;SDS011;15572;48.810;9.148;2024-02-26T11:30:08;4.53;;;2.20;;
28311;SDS011;15572;48.810;9.148;2024-02-26T11:35:08;2.50;;;1.83;;
28311;SDS011;15572;48.810;9.148;2024-02-26T11:40:06;3.53;;;2.27;;
28311;SDS011;15572;48.810;9.148;2024-02-26T11:45:18;3.67;;;2.00;;
28311;SDS011;15572;48.810;9.148;2024-02-26T11:50:50;3.53;;;1.80;;
28311;SDS011;15572;48.810;9.148;2024-02-26T11:55:47;4.53;;;2.10;;
28311;SDS011;15572;48.810;9.148;2024-02-26T12:00:44;5.53;;;2.27;;
28311;SDS011;15572;48.810;9.148;2024-02-26T12:05:41;3.83;;;2.10;;
28311;SDS011;15572;48.810;9.148;2024-02-26T12:10:39;2.63;;;2.00;;
28311;SDS011;15572;48.810;9.148;2024-02-26T12:15:38;2.97;;;2.13;;
28311;SDS011;15572;48.810;9.148;2024-02-26T12:20:35;3.57;;;2.37;;
28311;SDS011;15572;48.810;9.148;2024-02-26T12:25:32;4.27;;;2.30;;
28311;SDS011;15572;48.810;9.148;2024-02-26T12:30:30;2.27;;;1.90;;
28311;SDS011;15572;48.810;9.148;2024-02-26T12:35:27;3.60;;;1.80;;
28311;SDS011;15572;48.810;9.148;2024-02-26T12:40:26;4.87;;;1.80;;
28311;SDS011;15572;48.810;9.148;2024-02-26T12:45:23;3.63;;;1.60;;
28311;SDS011;15572;48.810;9.148;2024-02-26T12:50:24;3.37;;;2.10;;
28311;SDS011;15572;48.810;9.148;2024-02-26T12:55:20;4.00;;;1.97;;
28311;SDS011;15572;48.810;9.148;2024-02-26T13:00:18;2.73;;;1.60;;
28311;SDS011;15572;48.810;9.148;2024-02-26T13:05:18;2.90;;;1.70;;
28311;SDS011;15572;48.810;9.148;2024-02-26T13:10:16;1.60;;;1.50;;
28311;SDS011;15572;48.810;9.148;2024-02-26T13:15:17;2.87;;;1.50;;
28311;SDS011;15572;48.810;9.148;2024-02-26T13:20:24;1.60;;;1.30;;
28311;SDS011;15572;48.810;9.148;2024-02-26T13:25:23;2.10;;;1.40;;
28311;SDS011;15572;48.810;9.148;2024-02-26T13:30:19;2.57;;;1.63;;
28311;SDS011;15572;48.810;9.148;2024-02-26T13:35:16;3.20;;;1.60;;
28311;SDS011;15572;48.810;9.148;2024-02-26T13:40:13;1.63;;;1.30;;
28311;SDS011;15572;48.810;9.148;2024-02-26T13:45:11;2.20;;;1.40;;
28311;SDS011;15572;48.810;9.148;2024-02-26T13:50:08;1.70;;;1.20;;
28311;SDS011;15572;48.810;9.148;2024-02-26T13:55:05;3.33;;;1.20;;
28311;SDS011;15572;48.810;9.148;2024-02-26T14:00:02;2.17;;;1.43;;
28311;SDS011;15572;48.810;9.148;2024-02-26T14:05:01;2.37;;;1.40;;
28311;SDS011;15572;48.810;9.148;2024-02-26T14:09:59;2.50;;;1.30;;
28311;SDS011;15572;48.810;9.148;2024-02-26T14:14:55;1.93;;;1.37;;
28311;SDS011;15572;48.810;9.148;2024-02-26T14:19:53;1.67;;;1.13;;
28311;SDS011;15572;48.810;9.148;2024-02-26T14:24:51;1.30;;;1.10;;
28311;SDS011;15572;48.810;9.148;2024-02-26T14:29:48;1.07;;;0.80;;
28311;SDS011;15572;48.810;9.148;2024-02-26T14:34:44;2.60;;;0.90;;
28311;SDS011;15572;48.810;9.148;2024-02-26T14:39:41;2.00;;;1.10;;
28311;SDS011;15572;48.810;9.148;2024-02-26T14:44:39;1.30;;;1.00;;
28311;SDS011;15572;48.810;9.148;2024-02-26T14:49:35;1.53;;;1.00;;
28311;SDS011;15572;48.810;9.148;2024-02-26T14:54:31;1.00;;;0.90;;
28311;SDS011;15572;48.810;9.148;2024-02-26T14:59:32;1.10;;;0.90;;
28311;SDS011;15572;48.810;9.148;2024-02-26T15:04:30;1.10;;;1.00;;
28311;SDS011;15572;48.810;9.148;2024-02-26T15:09:26;1.27;;;0.80;;
28311;SDS011;15572;48.810;9.148;2024-02-26T15:14:23;4.53;;;0.83;;
28311;SDS011;15572;48.810;9.148;2024-02-26T15:19:20;1.80;;;0.77;;
28311;SDS011;15572;48.810;9.148;2024-02-26T15:24:18;3.27;;;1.10;;
28311;SDS011;15572;48.810;9.148;2024-02-26T15:29:14;2.47;;;1.47;;
28311;SDS011;15572;48.810;9.148;2024-02-26T15:34:10;1.37;;;1.10;;
28311;SDS011;15572;48.810;9.148;2024-02-26T15:39:07;2.87;;;1.20;;
28311;SDS011;15572;48.810;9.148;2024-02-26T15:44:05;1.27;;;1.10;;
28311;SDS011;15572;48.810;9.148;2024-02-26T15:49:02;1.40;;;1.07;;
28311;SDS011;15572;48.810;9.148;2024-02-26T15:53:58;1.53;;;1.20;;
28311;SDS011;15572;48.810;9.148;2024-02-26T15:58:55;1.40;;;1.10;;
28311;SDS011;15572;48.810;9.148;2024-02-26T16:03:53;1.83;;;1.43;;
28311;SDS011;15572;48.810;9.148;2024-02-26T16:08:50;4.73;;;2.60;;
28311;SDS011;15572;48.810;9.148;2024-02-26T16:13:47;2.80;;;1.70;;
28311;SDS011;15572;48.810;9.148;2024-02-26T16:18:50;2.63;;;1.43;;
28311;SDS011;15572;48.810;9.148;2024-02-26T16:23:48;1.60;;;1.50;;
28311;SDS011;15572;48.810;9.148;2024-02-26T16:28:44;4.13;;;1.70;;
28311;SDS011;15572;48.810;9.148;2024-02-26T16:33:41;2.23;;;1.70;;
28311;SDS011;15572;48.810;9.148;2024-02-26T16:38:37;3.33;;;1.90;;
28311;SDS011;15572;48.810;9.148;2024-02-26T16:43:35;6.50;;;2.20;;
28311;SDS011;15572;48.810;9.148;2024-02-26T16:48:33;3.37;;;1.73;;
28311;SDS011;15572;48.810;9.148;2024-02-26T16:53:30;3.03;;;2.17;;
28311;SDS011;15572;48.810;9.148;2024-02-26T16:58:27;3.13;;;1.93;;
28311;SDS011;15572;48.810;9.148;2024-02-26T17:03:24;2.57;;;2.10;;
28311;SDS011;15572;48.810;9.148;2024-02-26T17:08:21;3.63;;;2.13;;
28311;SDS011;15572;48.810;9.148;2024-02-26T17:13:17;3.03;;;2.10;;
28311;SDS011;15572;48.810;9.148;2024-02-26T17:18:14;2.17;;;1.90;;
28311;SDS011;15572;48.810;9.148;2024-02-26T17:23:13;2.83;;;2.20;;
28311;SDS011;15572;48.810;9.148;2024-02-26T17:28:10;5.87;;;2.30;;
28311;SDS011;15572;48.810;9.148;2024-02-26T17:33:07;5.27;;;2.53;;
28311;SDS011;15572;48.810;9.148;2024-02-26T17:38:03;6.23;;;3.83;;
28311;SDS011;15572;48.810;9.148;2024-02-26T17:43:01;4.63;;;2.87;;
28311;SDS011;15572;48.810;9.148;2024-02-26T17:47:58;3.70;;;2.70;;
28311;SDS011;15572;48.810;9.148;2024-02-26T17:52:54;4.30;;;2.80;;
28311;SDS011;15572;48.810;9.148;2024-02-26T17:57:52;4.43;;;2.90;;
28311;SDS011;15572;48.810;9.148;2024-02-26T18:02:50;4.87;;;2.93;;
28311;SDS011;15572;48.810;9.148;2024-02-26T18:07:46;5.93;;;3.10;;
28311;SDS011;15572;48.810;9.148;2024-02-26T18:12:43;4.80;;;3.13;;
28311;SDS011;15572;48.810;9.148;2024-02-26T18:17:39;7.37;;;3.37;;
28311;SDS011;15572;48.810;9.148;2024-02-26T18:22:38;3.63;;;2.90;;
28311;SDS011;15572;48.810;9.148;2024-02-26T18:27:35;5.50;;;2.90;;
28311;SDS011;15572;48.810;9.148;2024-02-26T18:32:32;5.60;;;3.23;;
28311;SDS011;15572;48.810;9.148;2024-02-26T18:37:29;5.03;;;3.33;;
28311;SDS011;15572;48.810;9.148;2024-02-26T18:42:27;7.13;;;3.87;;
28311;SDS011;15572;48.810;9.148;2024-02-26T18:47:24;5.67;;;3.70;;
28311;SDS011;15572;48.810;9.148;2024-02-26T18:52:21;5.43;;;3.30;;
28311;SDS011;15572;48.810;9.148;2024-02-26T18:57:17;4.50;;;3.17;;
28311;SDS011;15572;48.810;9.148;2024-02-26T19:02:15;5.77;;;3.87;;
28311;SDS011;15572;48.810;9.148;2024-02-26T19:07:11;8.30;;;4.27;;
28311;SDS011;15572;48.810;9.148;2024-02-26T19:12:08;5.23;;;3.70;;
28311;SDS011;15572;48.810;9.148;2024-02-26T19:17:05;5.23;;;3.43;;
28311;SDS011;15572;48.810;9.148;2024-02-26T19:22:03;7.50;;;4.17;;
28311;SDS011;15572;48.810;9.148;2024-02-26T19:27:01;4.77;;;3.43;;
28311;SDS011;15572;48.810;9.148;2024-02-26T19:31:59;6.83;;;4.27;;
28311;SDS011;15572;48.810;9.148;2024-02-26T19:36:55;6.63;;;4.27;;
28311;SDS011;15572;48.810;9.148;2024-02-26T19:41:53;7.10;;;4.00;;
28311;SDS011;15572;48.810;9.148;2024-02-26T19:46:49;6.67;;;4.00;;
28311;SDS011;15572;48.810;9.148;2024-02-26T19:51:46;5.77;;;4.00;;
28311;SDS011;15572;48.810;9.148;2024-02-26T19:56:42;5.83;;;3.97;;
28311;SDS011;15572;48.810;9.148;2024-02-26T20:01:41;6.67;;;4.10;;
28311;SDS011;15572;48.810;9.148;2024-02-26T20:06:38;7.93;;;4.23;;
28311;SDS011;15572;48.810;9.148;2024-02-26T20:11:34;5.10;;;3.80;;
28311;SDS011;15572;48.810;9.148;2024-02-26T20:16:31;8.23;;;4.37;;
28311;SDS011;15572;48.810;9.148;2024-02-26T20:21:29;7.03;;;3.63;;
28311;SDS011;15572;48.810;9.148;2024-02-26T20:26:27;6.07;;;4.17;;
28311;SDS011;15572;48.810;9.148;2024-02-26T20:31:23;6.73;;;4.03;;
28311;SDS011;15572;48.810;9.148;2024-02-26T20:36:20;5.43;;;3.87;;
28311;SDS011;15572;48.810;9.148;2024-02-26T20:41:18;7.47;;;4.27;;
28311;SDS011;15572;48.810;9.148;2024-02-26T20:46:17;6.83;;;4.30;;
28311;SDS011;15572;48.810;9.148;2024-02-26T20:51:14;9.27;;;4.57;;
28311;SDS011;15572;48.810;9.148;2024-02-26T20:56:10;6.47;;;4.20;;
28311;SDS011;15572;48.810;9.148;2024-02-26T21:01:09;6.07;;;4.27;;
28311;SDS011;15572;48.810;9.148;2024-02-26T21:06:06;8.40;;;4.27;;
28311;SDS011;15572;48.810;9.148;2024-02-26T21:11:03;5.63;;;4.03;;
28311;SDS011;15572;48.810;9.148;2024-02-26T21:15:59;8.23;;;4.77;;
28311;SDS011;15572;48.810;9.148;2024-02-26T21:20:57;9.43;;;4.77;;
28311;SDS011;15572;48.810;9.148;2024-02-26T21:25:54;5.83;;;4.20;;
28311;SDS011;15572;48.810;9.148;2024-02-26T21:30:50;7.03;;;4.80;;
28311;SDS011;15572;48.810;9.148;2024-02-26T21:35:49;8.60;;;4.70;;
28311;SDS011;15572;48.810;9.148;2024-02-26T21:40:47;5.13;;;4.10;;
28311;SDS011;15572;48.810;9.148;2024-02-26T21:45:44;5.50;;;3.73;;
28311;SDS011;15572;48.810;9.148;2024-02-26T21:50:40;8.03;;;3.63;;
28311;SDS011;15572;48.810;9.148;2024-02-26T21:55:37;4.00;;;3.00;;
28311;SDS011;15572;48.810;9.148;2024-02-26T22:00:34;5.00;;;2.73;;
28311;SDS011;15572;48.810;9.148;2024-02-26T22:05:31;3.80;;;2.70;;
28311;SDS011;15572;48.810;9.148;2024-02-26T22:10:27;3.57;;;2.50;;
28311;SDS011;15572;48.810;9.148;2024-02-26T22:15:23;4.27;;;2.57;;
28311;SDS011;15572;48.810;9.148;2024-02-26T22:20:22;4.00;;;2.53;;
28311;SDS011;15572;48.810;9.148;2024-02-26T22:25:18;4.27;;;2.60;;
28311;SDS011;15572;48.810;9.148;2024-02-26T22:30:15;3.47;;;2.53;;
28311;SDS011;15572;48.810;9.148;2024-02-26T22:35:12;4.00;;;2.60;;
28311;SDS011;15572;48.810;9.148;2024-02-26T22:40:10;3.53;;;2.60;;
28311;SDS011;15572;48.810;9.148;2024-02-26T22:45:07;3.03;;;2.40;;
28311;SDS011;15572;48.810;9.148;2024-02-26T22:50:04;3.37;;;2.60;;
28311;SDS011;15572;48.810;9.148;2024-02-26T22:55:01;3.13;;;2.30;;
28311;SDS011;15572;48.810;9.148;2024-02-26T22:59:59;3.67;;;2.53;;
28311;SDS011;15572;48.810;9.148;2024-02-26T23:05:05;3.07;;;1.90;;
28311;SDS011;15572;48.810;9.148;2024-02-26T23:10:02;2.87;;;2.10;;
28311;SDS011;15572;48.810;9.148;2024-02-26T23:15:00;3.33;;;2.47;;
28311;SDS011;15572;48.810;9.148;2024-02-26T23:19:56;2.63;;;2.23;;
28311;SDS011;15572;48.810;9.148;2024-02-26T23:24:53;3.17;;;1.97;;
28311;SDS011;15572;48.810;9.148;2024-02-26T23:29:49;2.20;;;1.80;;
28311;SDS011;15572;48.810;9.148;2024-02-26T23:34:47;4.17;;;1.90;;
28311;SDS011;15572;48.810;9.148;2024-02-26T23:39:43;2.50;;;1.70;;
28311;SDS011;15572;48.810;9.148;2024-02-26T23:44:42;2.00;;;1.80;;
28311;SDS011;15572;48.810;9.148;2024-02-26T23:49:38;2.67;;;1.90;;
28311;SDS011;15572;48.810;9.148;2024-02-26T23:54:36;2.47;;;1.77;;
28311;SDS011;15572;48.810;9.148;2024-02-26T23:59:34;2.00;;;1.53;;
